Terminal Aerodrome Forecast
Issued by NWS Cleveland, OH

Home | Current Version | Previous Version | Text Only | Print | Product List | Glossary Off
Versions: 1 2 3 4 5 6 7 8 9 10 11 12 13 14 15 16 17 18 19 20 21

792
FTUS41 KCLE 240524
TAFCAK
TAF
KCAK 240524Z 2406/2506 12011KT P6SM VCSH OVC050
     FM241800 12014KT 5SM -SHRA OVC030
     FM242300 10011KT 5SM -SHRA BR OVC015=

USA.gov is the U.S. government's official web portal to all federal, state and local government web resources and services.